»·PEaware :: N772WW KBUR-KLAS

N772WW :: KBUR-KLAS

FLIGHT INFORMATION

Flight Status: Arrived
Operator: Privately registered:
United States
More flights under this callsign
Pilot: Thomas S. (17015)
Aircraft: SOCATA TBM-900
(TBM9)
More flights by this aircraft type
Origin: KBUR Bob Hope-Burbank
United States
Destination: KLAS McCarran Intl
United States
More flights between these airports :: More routes between these airports
Route: +VVERA2 DAG CRESO4
File this flight plan on PilotEdge
Remarks:
Altitude:
(Current/Filed)
23,000ft
Speed:
(Current/Filed)
280kts
Departed: 22-Nov-20 09:07 AM
Arrived: 22-Nov-20 10:04 AM
Distance/Time
Traveled:
194nm/0:57
Distance/Time
To Go:
Arrived

Flight Plot

Page will automatically refresh every two minutes.

Flight plan parsing failed; only flown route is shown


Map Options




Map Legend


Flown Route
Filed Route
Departure Airport
Arrival Airport
Navaid (VOR, NDB)
Fix

Horizontal Profiles

Position Reports

Time Latitude Longitude Heading Altitude Ground
Speed
22-Nov-20 08:44 34.200390 -118.363571 282 734ft 0kts
22-Nov-20 08:45 34.200390 -118.363571 282 734ft 0kts
22-Nov-20 08:46 34.200390 -118.363571 282 734ft 0kts
22-Nov-20 08:47 34.200390 -118.363571 282 734ft 0kts
22-Nov-20 08:48 34.200390 -118.363571 282 734ft 0kts
22-Nov-20 08:49 34.200390 -118.363571 282 734ft 0kts
22-Nov-20 08:50 34.200390 -118.363571 282 734ft 0kts
22-Nov-20 08:51 34.200390 -118.363571 282 734ft 0kts
22-Nov-20 08:52 34.200390 -118.363571 282 734ft 0kts
22-Nov-20 08:53 34.200390 -118.363571 282 734ft 0kts
22-Nov-20 08:54 34.200390 -118.363571 282 734ft 0kts
22-Nov-20 08:55 34.200390 -118.363571 282 734ft 0kts
22-Nov-20 08:56 34.200390 -118.363571 282 734ft 0kts
22-Nov-20 08:57 34.200390 -118.363571 282 734ft 0kts
22-Nov-20 08:58 34.200390 -118.363571 282 734ft 0kts
22-Nov-20 08:59 34.200390 -118.363571 282 734ft 0kts
22-Nov-20 09:00 34.200390 -118.363571 282 734ft 0kts
22-Nov-20 09:01 34.200390 -118.363571 282 734ft 0kts
22-Nov-20 09:02 34.200390 -118.363571 282 734ft 0kts
22-Nov-20 09:03 34.199087 -118.365767 269 730ft 15kts
22-Nov-20 09:04 34.198659 -118.369003 184 732ft 0kts
22-Nov-20 09:05 34.197848 -118.367817 92 728ft 39kts
22-Nov-20 09:06 34.189835 -118.330646 157 2210ft 145kts
22-Nov-20 09:07 34.155717 -118.357546 222 4056ft 186kts
22-Nov-20 09:08 34.113962 -118.404873 222 4022ft 213kts
22-Nov-20 09:09 34.070191 -118.454369 222 4018ft 216kts
22-Nov-20 09:10 34.027928 -118.505732 250 3993ft 219kts
22-Nov-20 09:11 34.063980 -118.538356 352 6519ft 170kts
22-Nov-20 09:12 34.106732 -118.536107 19 9108ft 163kts
22-Nov-20 09:13 34.151724 -118.517532 19 11351ft 177kts
22-Nov-20 09:14 34.200833 -118.497143 19 13050ft 218kts
22-Nov-20 09:15 34.266797 -118.469704 19 13025ft 267kts
22-Nov-20 09:16 34.338667 -118.440033 15 13017ft 275kts
22-Nov-20 09:17 34.411799 -118.412690 40 12984ft 277kts
22-Nov-20 09:18 34.459123 -118.339333 52 13018ft 276kts
22-Nov-20 09:19 34.490641 -118.256942 66 13957ft 244kts
22-Nov-20 09:20 34.511807 -118.189594 76 16801ft 193kts
22-Nov-20 09:21 34.524450 -118.124756 76 19134ft 202kts
22-Nov-20 09:22 34.537507 -118.057569 76 21406ft 209kts
22-Nov-20 09:23 34.551272 -117.986504 76 23109ft 241kts
22-Nov-20 09:24 34.568685 -117.896362 76 23093ft 294kts
22-Nov-20 09:25 34.587640 -117.797769 76 23084ft 306kts
22-Nov-20 09:26 34.607138 -117.696195 76 23082ft 307kts
22-Nov-20 09:28 34.626760 -117.593865 76 23082ft 307kts
22-Nov-20 09:29 34.645905 -117.493546 76 23082ft 307kts
22-Nov-20 09:30 34.665082 -117.392582 76 23082ft 307kts
22-Nov-20 09:31 34.684553 -117.289574 77 23082ft 307kts
22-Nov-20 09:32 34.703301 -117.189905 77 23082ft 307kts
22-Nov-20 09:33 34.722544 -117.087111 77 23089ft 307kts
22-Nov-20 09:34 34.749685 -116.989028 57 23131ft 306kts
22-Nov-20 09:35 34.795923 -116.900538 57 23134ft 307kts
22-Nov-20 09:36 34.841798 -116.812038 57 23121ft 307kts
22-Nov-20 09:37 34.887467 -116.723700 57 23100ft 308kts
22-Nov-20 09:38 34.933098 -116.635213 57 23100ft 307kts
22-Nov-20 09:39 34.977025 -116.545517 61 23101ft 307kts
22-Nov-20 09:40 35.017926 -116.453443 61 23100ft 307kts
22-Nov-20 09:41 35.058715 -116.361440 61 23100ft 307kts
22-Nov-20 09:42 35.099516 -116.269181 61 23100ft 307kts
22-Nov-20 09:43 35.140370 -116.176539 61 23100ft 307kts
22-Nov-20 09:44 35.180942 -116.084288 61 23100ft 307kts
22-Nov-20 09:44 35.214787 -116.007127 61 22900ft 314kts
22-Nov-20 09:46 35.265729 -115.890706 61 19643ft 343kts
22-Nov-20 09:47 35.310550 -115.788298 59 16621ft 338kts
22-Nov-20 09:47 35.362833 -115.717561 46 14107ft 330kts
22-Nov-20 09:49 35.430683 -115.627039 47 12173ft 296kts
22-Nov-20 09:49 35.476641 -115.565544 47 10879ft 291kts
22-Nov-20 09:51 35.539033 -115.481941 46 9951ft 272kts
22-Nov-20 09:51 35.581242 -115.425265 46 9952ft 266kts
22-Nov-20 09:52 35.631042 -115.358284 46 9954ft 264kts
22-Nov-20 09:53 35.680691 -115.291374 47 9954ft 264kts
22-Nov-20 09:54 35.732355 -115.221599 47 8989ft 284kts
22-Nov-20 09:55 35.788628 -115.154199 16 7925ft 276kts
22-Nov-20 09:56 35.861190 -115.135968 11 7943ft 260kts
22-Nov-20 09:57 35.932426 -115.118466 11 7934ft 259kts
22-Nov-20 09:58 36.003480 -115.101106 11 7929ft 260kts
22-Nov-20 09:59 36.072405 -115.084466 11 6609ft 221kts
22-Nov-20 10:00 36.126681 -115.083836 313 4368ft 201kts
22-Nov-20 10:01 36.132434 -115.129632 224 3003ft 129kts
22-Nov-20 10:02 36.108063 -115.151613 201 2488ft 89kts
22-Nov-20 10:03 36.090144 -115.161897 205 2181ft 24kts
22-Nov-20 10:04 36.089343 -115.163455 295 2181ft 0kts
22-Nov-20 10:05 36.092108 -115.163149 24 2181ft 28kts
22-Nov-20 10:06 36.097931 -115.160921 326 2181ft 10kts
22-Nov-20 10:07 36.099970 -115.160028 47 2181ft 0kts
22-Nov-20 10:08 36.099970 -115.160028 47 2181ft 0kts
22-Nov-20 10:09 36.099970 -115.160028 47 2181ft 0kts
22-Nov-20 10:10 36.099970 -115.160028 47 2181ft 0kts

Navigation Log

Ident Type
Flight plan parsing failed, navigation log unavailable